createdAt,value
2023-05-09T00:02:36.037Z,1.65
2023-05-09T00:05:38.848Z,2.25
2023-05-09T00:08:41.538Z,2.17
2023-05-09T00:11:43.961Z,1.80
2023-05-09T00:14:48.216Z,2.05
2023-05-09T00:17:50.632Z,2.15
2023-05-09T00:20:52.935Z,2.00
2023-05-09T00:23:55.696Z,2.20
2023-05-09T00:26:57.806Z,2.28
2023-05-09T00:29:59.955Z,2.10
2023-05-09T00:33:02.272Z,1.67
2023-05-09T00:36:04.754Z,1.75
2023-05-09T00:39:06.868Z,2.28
2023-05-09T00:42:08.965Z,2.40
2023-05-09T00:45:11.611Z,1.80
2023-05-09T00:48:15.246Z,2.00
2023-05-09T00:51:17.717Z,1.97
2023-05-09T00:54:19.854Z,2.13
2023-05-09T00:57:22.712Z,2.50
2023-05-09T01:00:25.426Z,2.55
2023-05-09T01:03:28.052Z,1.95
2023-05-09T01:07:04.612Z,2.10
2023-05-09T01:10:09.641Z,2.17
2023-05-09T01:13:23.742Z,2.10
2023-05-09T01:16:39.871Z,1.95
2023-05-09T01:19:58.504Z,1.88
2023-05-09T01:23:15.932Z,2.20
2023-05-09T01:26:26.168Z,1.95
2023-05-09T01:29:36.852Z,1.95
2023-05-09T01:32:39.491Z,2.28
2023-05-09T01:35:42.827Z,2.05
2023-05-09T01:38:49.020Z,1.98
2023-05-09T01:41:53.418Z,2.25
2023-05-09T01:44:56.236Z,2.43
2023-05-09T01:47:58.921Z,2.20
2023-05-09T01:51:01.595Z,2.10
2023-05-09T01:54:04.114Z,1.93
2023-05-09T01:57:07.804Z,2.10
2023-05-09T02:00:13.245Z,2.22
2023-05-09T02:03:15.678Z,2.28
2023-05-09T02:06:20.846Z,2.13
2023-05-09T02:09:23.080Z,2.30
2023-05-09T02:12:25.651Z,2.35
2023-05-09T02:15:29.280Z,2.10
2023-05-09T02:18:32.726Z,2.35
2023-05-09T02:21:35.821Z,2.05
2023-05-09T02:24:38.082Z,2.20
2023-05-09T02:27:40.509Z,2.30
2023-05-09T02:30:44.477Z,2.40
2023-05-09T02:33:47.936Z,2.58
2023-05-09T02:36:50.321Z,2.47
2023-05-09T02:39:52.503Z,2.60
2023-05-09T02:42:54.959Z,2.47
2023-05-09T02:45:57.110Z,2.20
2023-05-09T02:48:59.374Z,2.67
2023-05-09T02:52:01.852Z,2.95
2023-05-09T02:55:04.944Z,2.50
2023-05-09T02:58:14.754Z,2.53
2023-05-09T03:01:18.849Z,2.47
2023-05-09T03:04:21.044Z,2.70
2023-05-09T03:07:23.332Z,2.38
2023-05-09T03:10:25.575Z,2.70
2023-05-09T03:13:27.926Z,2.70
2023-05-09T03:16:32.456Z,3.00
2023-05-09T03:19:35.283Z,2.65
2023-05-09T03:22:37.625Z,2.60
2023-05-09T03:25:42.365Z,2.50
2023-05-09T03:28:44.556Z,3.00
2023-05-09T03:31:47.007Z,2.83
2023-05-09T03:34:49.498Z,2.90
2023-05-09T03:37:51.976Z,3.15
2023-05-09T03:40:54.351Z,2.70
2023-05-09T03:43:57.525Z,2.60
2023-05-09T03:46:59.884Z,2.90
2023-05-09T03:50:05.719Z,3.05
2023-05-09T03:53:09.656Z,2.83
2023-05-09T03:56:15.826Z,2.90
2023-05-09T03:59:24.191Z,2.70
2023-05-09T04:02:26.717Z,3.20
2023-05-09T04:05:29.232Z,2.78
2023-05-09T04:08:32.562Z,2.80
2023-05-09T04:11:36.100Z,3.03
2023-05-09T04:14:41.031Z,2.92
2023-05-09T04:17:43.987Z,2.53
2023-05-09T04:20:46.476Z,3.03
2023-05-09T04:27:16.781Z,2.87
2023-05-09T04:30:19.520Z,2.85
2023-05-09T04:33:24.168Z,2.70
2023-05-09T04:36:31.967Z,2.30
2023-05-09T04:39:34.392Z,2.70
2023-05-09T04:42:45.781Z,3.10
2023-05-09T04:45:48.317Z,2.67
2023-05-09T04:48:53.878Z,2.47
2023-05-09T04:51:56.224Z,2.70
2023-05-09T04:54:58.438Z,2.85
2023-05-09T04:58:04.099Z,2.50
2023-05-09T05:01:06.530Z,2.70
2023-05-09T05:04:08.915Z,2.63
2023-05-09T05:07:11.452Z,2.42
2023-05-09T05:10:14.363Z,2.75
2023-05-09T05:13:21.699Z,2.75
2023-05-09T05:16:28.315Z,3.00
2023-05-09T05:19:30.722Z,2.63
2023-05-09T05:22:33.521Z,2.70
2023-05-09T05:25:36.065Z,2.53
2023-05-09T05:28:38.617Z,2.60
2023-05-09T05:31:41.648Z,2.40
2023-05-09T05:34:43.997Z,2.70
2023-05-09T05:37:48.960Z,2.05
2023-05-09T05:40:52.155Z,2.38
2023-05-09T05:43:55.422Z,3.25
2023-05-09T05:46:57.735Z,2.17
2023-05-09T05:50:03.631Z,2.17
2023-05-09T05:53:06.864Z,2.65
2023-05-09T05:56:09.288Z,2.50
2023-05-09T05:59:13.435Z,2.20
2023-05-09T06:02:20.745Z,2.28
2023-05-09T06:05:23.928Z,2.20
2023-05-09T06:08:27.260Z,2.15
2023-05-09T06:11:29.495Z,1.80
2023-05-09T06:14:33.380Z,2.08
2023-05-09T06:17:36.313Z,1.73
2023-05-09T06:20:38.568Z,1.60
2023-05-09T06:23:47.597Z,1.80
2023-05-09T06:27:06.074Z,1.50
2023-05-09T06:30:23.775Z,1.47
2023-05-09T06:33:27.530Z,1.10
2023-05-09T06:36:31.107Z,1.50
2023-05-09T06:39:35.899Z,1.20
2023-05-09T06:42:40.543Z,0.82
2023-05-09T06:45:42.792Z,1.10
2023-05-09T06:48:45.317Z,1.30
2023-05-09T06:51:47.567Z,1.07
2023-05-09T06:54:49.806Z,1.20
2023-05-09T06:57:51.974Z,1.08
2023-05-09T07:00:54.285Z,1.00
2023-05-09T07:03:56.628Z,1.17
2023-05-09T07:07:00.448Z,0.90
2023-05-09T07:10:11.202Z,1.10
2023-05-09T07:13:14.559Z,1.17
2023-05-09T07:16:18.490Z,0.88
2023-05-09T07:19:20.766Z,1.00
2023-05-09T07:22:22.974Z,1.13
2023-05-09T07:25:25.240Z,0.80
2023-05-09T07:28:27.659Z,0.95
2023-05-09T07:31:30.147Z,1.00
2023-05-09T07:34:32.405Z,1.10
2023-05-09T07:37:35.033Z,0.80
2023-05-09T07:40:38.761Z,0.80
2023-05-09T07:43:40.946Z,0.77
2023-05-09T07:46:43.094Z,1.00
2023-05-09T07:49:50.397Z,0.70
2023-05-09T07:52:52.877Z,0.60
2023-05-09T07:55:55.185Z,0.98
2023-05-09T07:58:57.384Z,1.00
2023-05-09T08:02:03.108Z,0.80
2023-05-09T08:05:06.324Z,1.10
2023-05-09T08:08:08.548Z,0.73
2023-05-09T08:11:10.784Z,0.80
2023-05-09T08:14:14.428Z,1.17
2023-05-09T08:17:17.822Z,0.60
2023-05-09T08:20:20.009Z,0.95
2023-05-09T08:23:23.765Z,0.80
2023-05-09T08:26:27.222Z,0.77
2023-05-09T08:29:29.886Z,0.90
2023-05-09T08:32:32.257Z,0.93
2023-05-09T08:35:37.168Z,0.55
2023-05-09T08:38:40.501Z,0.90
2023-05-09T08:41:47.201Z,0.80
2023-05-09T08:44:49.480Z,0.65
2023-05-09T08:47:52.339Z,0.90
2023-05-09T08:50:56.042Z,0.80
2023-05-09T08:53:59.075Z,0.50
2023-05-09T08:57:01.273Z,0.60
2023-05-09T09:00:06.448Z,0.50
2023-05-09T09:03:10.286Z,0.60
2023-05-09T09:06:13.325Z,0.50
2023-05-09T09:09:16.840Z,0.60
2023-05-09T09:12:22.793Z,0.75
2023-05-09T09:15:26.551Z,0.80
2023-05-09T09:18:30.759Z,0.90
2023-05-09T09:21:33.640Z,0.70
2023-05-09T09:24:35.879Z,0.93
2023-05-09T09:27:38.070Z,0.98
2023-05-09T09:30:45.063Z,0.57
2023-05-09T09:33:48.014Z,0.60
2023-05-09T09:36:50.288Z,0.50
2023-05-09T09:39:58.620Z,0.60
2023-05-09T09:43:00.978Z,0.70
2023-05-09T09:46:04.881Z,0.52
2023-05-09T09:49:11.511Z,0.60
2023-05-09T09:52:22.869Z,0.60
2023-05-09T09:55:25.224Z,0.53
2023-05-09T09:58:27.341Z,0.55
2023-05-09T10:01:45.536Z,0.60
2023-05-09T10:04:48.964Z,0.67
2023-05-09T10:07:54.184Z,0.60
2023-05-09T10:10:58.376Z,0.60
2023-05-09T10:14:03.643Z,0.52
2023-05-09T10:17:06.155Z,0.80
2023-05-09T10:20:12.786Z,0.75
2023-05-09T10:23:16.231Z,0.60
2023-05-09T10:26:29.241Z,0.63
2023-05-09T10:29:35.516Z,0.73
2023-05-09T10:32:54.960Z,0.52
2023-05-09T10:35:58.510Z,0.77
2023-05-09T10:39:01.241Z,0.70
2023-05-09T10:42:03.794Z,0.70
2023-05-09T10:45:06.702Z,0.50
2023-05-09T10:48:09.280Z,0.63
2023-05-09T10:51:12.271Z,0.43
2023-05-09T10:54:16.335Z,0.45
2023-05-09T10:57:19.795Z,0.30
2023-05-09T11:00:25.406Z,0.60
2023-05-09T11:03:29.426Z,0.47
2023-05-09T11:06:46.277Z,0.40
2023-05-09T11:09:53.295Z,0.65
2023-05-09T11:12:58.074Z,0.40
2023-05-09T11:16:00.857Z,0.65
2023-05-09T11:19:03.294Z,0.77
2023-05-09T11:22:22.395Z,0.60
2023-05-09T11:25:29.155Z,0.80
2023-05-09T11:28:33.803Z,0.50
2023-05-09T11:31:37.138Z,0.50
2023-05-09T11:34:43.316Z,0.60
2023-05-09T11:38:05.591Z,0.33
2023-05-09T11:41:08.712Z,0.35
2023-05-09T11:44:18.073Z,0.88
2023-05-09T11:47:24.062Z,0.77
2023-05-09T11:50:26.703Z,0.60
2023-05-09T11:53:45.796Z,0.52
2023-05-09T11:56:49.320Z,0.77
2023-05-09T11:59:51.503Z,0.53
2023-05-09T12:02:53.982Z,0.63
2023-05-09T12:05:56.392Z,0.63
2023-05-09T12:08:58.657Z,0.57
2023-05-09T12:12:01.494Z,0.30
2023-05-09T12:15:06.992Z,0.80
2023-05-09T12:18:09.315Z,0.38
2023-05-09T12:21:12.237Z,0.40
2023-05-09T12:24:14.407Z,0.68
2023-05-09T12:27:18.735Z,0.70
2023-05-09T12:30:20.995Z,0.40
2023-05-09T12:33:23.692Z,0.77
2023-05-09T12:36:28.433Z,0.50
2023-05-09T12:39:30.626Z,0.70
2023-05-09T12:42:34.242Z,0.65
2023-05-09T12:45:38.737Z,0.50
2023-05-09T12:48:40.957Z,0.73
2023-05-09T12:51:50.087Z,1.05
2023-05-09T12:54:54.155Z,0.82
2023-05-09T12:58:01.848Z,0.75
2023-05-09T13:01:04.816Z,0.87
2023-05-09T13:04:07.594Z,0.70
2023-05-09T13:07:13.046Z,0.50
2023-05-09T13:10:19.261Z,0.93
2023-05-09T13:13:23.038Z,0.55
2023-05-09T13:16:25.529Z,0.65
2023-05-09T13:19:27.842Z,0.68
2023-05-09T13:22:30.030Z,0.90
2023-05-09T13:25:32.197Z,0.60
2023-05-09T13:28:34.359Z,0.40
2023-05-09T13:31:36.489Z,0.67
2023-05-09T13:34:38.757Z,0.40
2023-05-09T13:37:43.914Z,0.50
2023-05-09T13:40:46.351Z,0.50
2023-05-09T13:43:48.604Z,0.95
2023-05-09T13:46:50.893Z,0.32
2023-05-09T13:49:53.120Z,0.57
2023-05-09T13:52:55.396Z,0.80
2023-05-09T13:55:57.783Z,0.40
2023-05-09T13:59:00.040Z,0.30
2023-05-09T14:02:02.270Z,0.50
2023-05-09T14:05:05.099Z,0.30
2023-05-09T14:08:07.925Z,0.75
2023-05-09T14:11:10.214Z,0.57
2023-05-09T14:14:12.386Z,0.40
2023-05-09T14:17:14.592Z,0.40
2023-05-09T14:20:17.061Z,0.40
2023-05-09T14:23:19.352Z,0.40
2023-05-09T14:26:22.200Z,0.40
2023-05-09T14:29:24.248Z,0.45
2023-05-09T14:32:28.754Z,0.50
2023-05-09T14:35:34.116Z,0.30
2023-05-09T14:38:36.941Z,0.50
2023-05-09T14:41:39.587Z,0.47
2023-05-09T14:44:42.071Z,0.47
2023-05-09T14:47:44.403Z,0.60
2023-05-09T14:50:46.744Z,0.60
2023-05-09T15:00:25.783Z,0.32
2023-05-09T15:03:28.957Z,0.63
2023-05-09T15:06:31.734Z,0.65
2023-05-09T15:09:33.980Z,0.60
2023-05-09T15:12:36.191Z,0.38
2023-05-09T15:18:55.551Z,0.40
2023-05-09T15:25:18.415Z,0.57
2023-05-09T15:31:36.916Z,0.28
2023-05-09T15:34:39.301Z,0.40
2023-05-09T15:44:14.969Z,0.47
2023-05-09T15:47:17.583Z,0.45
2023-05-09T15:50:19.694Z,0.55
2023-05-09T15:53:23.161Z,0.43
2023-05-09T15:56:25.736Z,0.43
2023-05-09T15:59:28.082Z,0.70
2023-05-09T16:02:30.380Z,0.32
2023-05-09T16:05:32.635Z,0.40
2023-05-09T16:08:34.792Z,0.40
2023-05-09T16:11:37.212Z,0.60
2023-05-09T16:14:39.544Z,0.60
2023-05-09T16:17:41.998Z,0.35
2023-05-09T16:20:44.418Z,0.50
2023-05-09T16:23:46.588Z,0.60
2023-05-09T16:26:48.807Z,0.40
2023-05-09T16:29:50.988Z,0.90
2023-05-09T16:32:53.268Z,0.35
2023-05-09T16:35:55.806Z,0.80
2023-05-09T16:38:58.192Z,0.60
2023-05-09T16:42:00.458Z,0.60
2023-05-09T16:45:02.591Z,0.88
2023-05-09T16:48:05.345Z,0.63
2023-05-09T16:51:07.623Z,0.90
2023-05-09T16:54:10.214Z,0.50
2023-05-09T16:57:13.310Z,0.60
2023-05-09T17:00:16.660Z,0.63
2023-05-09T17:03:19.091Z,0.30
2023-05-09T17:06:21.591Z,0.60
2023-05-09T17:09:24.443Z,0.73
2023-05-09T17:12:30.399Z,0.82
2023-05-09T17:15:34.233Z,1.65
2023-05-09T17:18:38.058Z,2.42
2023-05-09T17:21:46.805Z,3.97
2023-05-09T17:24:49.062Z,4.25
2023-05-09T17:27:51.272Z,3.17
2023-05-09T17:30:53.386Z,2.38
2023-05-09T17:33:55.969Z,2.20
2023-05-09T17:36:58.747Z,1.70
2023-05-09T17:40:01.182Z,1.48
2023-05-09T17:43:03.395Z,1.35
2023-05-09T17:46:05.629Z,1.38
2023-05-09T17:49:10.102Z,1.13
2023-05-09T17:52:12.508Z,1.10
2023-05-09T17:55:14.918Z,0.82
2023-05-09T17:58:17.179Z,1.00
2023-05-09T18:01:20.348Z,1.08
2023-05-09T18:04:22.616Z,1.02
2023-05-09T18:07:25.475Z,1.10
2023-05-09T18:10:30.264Z,1.05
2023-05-09T18:16:50.834Z,1.05
2023-05-09T18:19:52.971Z,1.05
2023-05-09T18:22:55.229Z,1.30
2023-05-09T18:25:57.459Z,1.10
2023-05-09T18:28:59.858Z,1.40
2023-05-09T18:32:02.272Z,1.42
2023-05-09T18:35:05.400Z,0.75
2023-05-09T18:38:07.678Z,1.00
2023-05-09T18:41:11.266Z,0.90
2023-05-09T18:44:13.457Z,0.75
2023-05-09T18:47:15.846Z,1.15
2023-05-09T18:53:21.068Z,1.40
2023-05-09T18:56:26.331Z,1.25
2023-05-09T18:59:28.713Z,1.00
2023-05-09T19:02:31.030Z,1.38
2023-05-09T19:05:33.201Z,1.40
2023-05-09T19:08:35.785Z,1.30
2023-05-09T19:11:56.709Z,1.20
2023-05-09T19:14:58.888Z,1.33
2023-05-09T19:18:01.860Z,1.10
2023-05-09T19:21:04.110Z,1.10
2023-05-09T19:24:06.459Z,1.30
2023-05-09T19:27:10.094Z,1.48
2023-05-09T19:30:17.901Z,1.33
2023-05-09T19:33:20.167Z,1.55
2023-05-09T19:36:22.277Z,1.60
2023-05-09T19:39:24.423Z,1.40
2023-05-09T19:42:26.637Z,1.58
2023-05-09T19:45:28.764Z,1.60
2023-05-09T19:48:30.997Z,1.58
2023-05-09T19:51:33.181Z,1.90
2023-05-09T19:54:35.664Z,1.52
2023-05-09T19:57:37.979Z,1.70
2023-05-09T20:00:40.107Z,1.27
2023-05-09T20:03:52.402Z,1.45
2023-05-09T20:06:54.718Z,1.58
2023-05-09T20:09:56.839Z,1.57
2023-05-09T20:12:59.413Z,1.52
2023-05-09T20:16:03.148Z,1.30
2023-05-09T20:19:08.897Z,1.50
2023-05-09T20:22:11.279Z,1.52
2023-05-09T20:25:13.768Z,1.50
2023-05-09T20:31:36.245Z,1.60
2023-05-09T20:34:38.465Z,1.70
2023-05-09T20:37:40.641Z,1.58
2023-05-09T20:40:43.389Z,1.73
2023-05-09T20:43:45.688Z,1.73
2023-05-09T20:46:47.817Z,1.40
2023-05-09T20:49:55.818Z,1.50
2023-05-09T20:52:59.014Z,1.50
2023-05-09T20:56:04.452Z,1.10
2023-05-09T20:59:06.610Z,1.00
2023-05-09T21:02:08.942Z,1.40
2023-05-09T21:05:11.168Z,1.40
2023-05-09T21:08:13.296Z,1.30
2023-05-09T21:14:34.714Z,1.02
2023-05-09T21:17:37.702Z,1.50
2023-05-09T21:23:56.088Z,1.10
2023-05-09T21:26:58.251Z,1.17
2023-05-09T21:30:00.384Z,1.30
2023-05-09T21:33:03.973Z,0.87
2023-05-09T21:36:07.630Z,1.45
2023-05-09T21:39:10.355Z,1.40
2023-05-09T21:42:12.518Z,1.13
2023-05-09T21:45:14.883Z,1.30
2023-05-09T21:48:17.202Z,1.10
2023-05-09T21:51:19.455Z,1.00
2023-05-09T21:54:21.662Z,1.20
2023-05-09T21:57:23.805Z,1.23
2023-05-09T22:00:26.032Z,1.30
2023-05-09T22:03:28.282Z,0.87
2023-05-09T22:06:33.291Z,0.98
2023-05-09T22:09:35.716Z,1.25
2023-05-09T22:12:38.178Z,1.07
2023-05-09T22:15:40.320Z,1.02
2023-05-09T22:18:43.144Z,0.73
2023-05-09T22:21:45.260Z,1.02
2023-05-09T22:24:47.387Z,1.30
2023-05-09T22:31:06.807Z,1.10
2023-05-09T22:34:08.892Z,0.93
2023-05-09T22:37:11.004Z,1.20
2023-05-09T22:40:13.567Z,1.20
2023-05-09T22:43:16.052Z,1.17
2023-05-09T22:46:18.306Z,1.20
2023-05-09T22:49:20.432Z,1.20
2023-05-09T22:52:22.573Z,1.13
2023-05-09T22:55:24.729Z,1.70
2023-05-09T22:58:27.299Z,1.17
2023-05-09T23:01:29.434Z,0.95
2023-05-09T23:08:43.872Z,1.20
2023-05-09T23:12:05.217Z,1.10
2023-05-09T23:15:08.048Z,1.03
2023-05-09T23:18:10.264Z,0.90
2023-05-09T23:21:12.616Z,1.33
2023-05-09T23:24:14.779Z,1.90
2023-05-09T23:27:17.058Z,1.67
2023-05-09T23:30:22.397Z,1.50
2023-05-09T23:33:24.566Z,1.30
2023-05-09T23:36:26.814Z,1.60
2023-05-09T23:39:29.164Z,2.03
2023-05-09T23:42:31.421Z,1.83
2023-05-09T23:45:33.715Z,1.73
2023-05-09T23:48:35.898Z,1.95
2023-05-09T23:51:38.081Z,2.25
2023-05-09T23:54:40.407Z,2.38
2023-05-09T23:57:42.610Z,2.28
